• Join FlightAware (Why Join?)
  • Login
  • US Flag 
02:37AM EDT


 

Airport Tracker/Info


-or-


 

Live Flight TrackerFlight Track Log ✈ AAL1278 ✈ 28-Apr-2013 ✈ KLAX - KORD

Flight Track Log - Related Links

Times and Time Zones

All times are in EDT time to prevent confusion due to time zone crossing. See the AAL1278 flight status page for this flight to view local times or setup timezone preferences in your user account.

Time Position Orientation Groundspeed Altitude Reporting Facility
EDT Latitude Longitude Course Direction KTS MPH feet Rate Location/Type
07:35PM 33.9325 -118.4583 54° Northeast 182 209 1,800  Level Los Angeles Center
07:36PM 34.1226 -118.0882 59° Northeast  Level FlightAware Approximate
07:36PM 33.9103 -118.5283 249° West 227 261 2,900  Level Los Angeles Center
07:37PM 34.1856 -117.9623 59° Northeast  Level FlightAware Approximate
07:37PM 33.8664 -118.6017 234° Southwest 261 300 5,000  Level Los Angeles Center
07:38PM 34.2486 -117.8362 59° Northeast  Level FlightAware Approximate
07:38PM 33.8225 -118.5556 139° Southeast 279 321 6,600  Level Los Angeles Center
07:39PM 34.3271 -117.7244 46° Northeast  Level FlightAware Approximate
07:39PM 33.8864 -118.4761 46° Northeast 286 329 9,600  Level Los Angeles Center
07:40PM 34.3930 -117.6006 54° Northeast  Level FlightAware Approximate
07:40PM 33.9372 -118.4264 39° Northeast 283 326 11,700  Level Los Angeles Center
07:41PM 33.9989 -118.3153 56° Northeast 326 375 12,800 1,380 Climbing Los Angeles Center
07:42PM 34.0617 -118.2050 55° Northeast 384 442 14,600 1,980 Climbing Los Angeles Center
07:43PM 34.1267 -118.0928 55° Northeast 402 463 16,900 2,640 Climbing Los Angeles Center
07:44PM 34.1908 -117.9778 56° Northeast 411 473 20,100 2,580 Climbing Los Angeles Center
07:45PM 34.2525 -117.8672 56° Northeast 401 461 22,300 1,860 Climbing Los Angeles Center
07:46PM 34.3167 -117.7522 56° Northeast 409 471 24,000 780 Climbing Los Angeles Center
07:47PM 34.4017 -117.5997 56° Northeast 422 486 24,100 780 Climbing Los Angeles Center
07:48PM 34.4678 -117.4814 56° Northeast 426 490 25,900 1,560 Climbing Los Angeles Center
07:49PM 34.5342 -117.3597 56° Northeast 434 499 27,400 1,440 Climbing Los Angeles Center
07:50PM 34.6153 -117.2117 56° Northeast 441 507 28,900 1,200 Climbing Los Angeles Center
07:51PM 34.6847 -117.0861 56° Northeast 449 517 30,000 960 Climbing Los Angeles Center
07:52PM 34.7633 -116.9658 51° Northeast 455 524 31,000 960 Climbing Los Angeles Center
07:53PM 34.8517 -116.8583 45° Northeast 453 521 32,000 480 Climbing Los Angeles Center
07:54PM 34.9408 -116.7489 45° Northeast 456 525 32,000  Level Los Angeles Center
07:55PM 35.0472 -116.6183 45° Northeast 454 522 32,000  Level Los Angeles Center
07:56PM 35.1361 -116.5092 45° Northeast 456 525 32,100 660 Climbing Los Angeles Center
07:57PM 35.2222 -116.3964 47° Northeast 455 524 33,400 1,080 Climbing Los Angeles Center
07:59PM 35.3036 -116.2783 50° Northeast 456 525 34,400 1,020 Climbing Los Angeles Center
08:00PM 35.3844 -116.1619 50° Northeast 453 521 35,600 960 Climbing Los Angeles Center
08:01PM 35.4828 -116.0244 49° Northeast 448 516 36,500 660 Climbing Los Angeles Center
08:02PM 35.5656 -115.9064 49° Northeast 455 524 37,000 240 Climbing Los Angeles Center
08:03PM 35.6569 -115.7747 49° Northeast 455 524 37,000  Level Los Angeles Center
08:04PM 35.7400 -115.6558 49° Northeast 459 528 37,000  Level Los Angeles Center
08:05PM 35.8203 -115.5378 50° Northeast 453 521 37,000  Level Los Angeles Center
08:06PM 35.9000 -115.4197 50° Northeast 451 519 37,000  Level Los Angeles Center
08:07PM 35.9797 -115.3019 50° Northeast 451 519 37,000  Level Los Angeles Center
08:08PM 36.0742 -115.1631 50° Northeast 446 513 37,000  Level Los Angeles Center
08:09PM 36.1214 -115.0189 68° East 455 524 37,000  Level Los Angeles Center
08:10PM 36.1633 -114.8744 70° East 451 519 37,000  Level Los Angeles Center
08:11PM 36.2056 -114.7278 70° East 452 520 37,000  Level Los Angeles Center
08:12PM 36.2472 -114.5806 71° East 454 522 37,000  Level Los Angeles Center
08:13PM 36.2881 -114.4333 71° East 454 522 37,000  Level Los Angeles Center
08:14PM 36.3381 -114.2553 71° East 457 526 37,000  Level Los Angeles Center
08:15PM 36.3797 -114.1083 71° East 455 524 37,000  Level Los Angeles Center
08:16PM 36.4217 -113.9614 70° East 454 522 37,000  Level Los Angeles Center
08:17PM 36.4606 -113.8150 72° East 449 517 37,000  Level Los Angeles Center
08:18PM 36.5017 -113.6683 71° East 449 517 37,000  Level Los Angeles Center
08:19PM 36.5431 -113.5181 71° East 452 520 37,000  Level Los Angeles Center
08:20PM 36.5828 -113.3708 71° East 452 520 37,000  Level Los Angeles Center
08:21PM 36.6308 -113.1942 71° East 452 520 37,000  Level Los Angeles Center
08:22PM 36.6706 -113.0475 71° East 451 519 37,000  Level Los Angeles Center
08:23PM 36.7094 -112.9006 72° East 449 517 37,000  Level Los Angeles Center
08:24PM 36.7486 -112.7525 72° East 451 519 37,000  Level Los Angeles Center
08:25PM 36.7878 -112.6028 72° East 454 522 37,000  Level Los Angeles Center
08:26PM 36.8350 -112.4269 71° East 451 519 37,000  Level Los Angeles Center
08:27PM 36.8728 -112.2778 72° East 452 520 37,000  Level Los Angeles Center
08:29PM 36.9119 -112.1297 72° East 451 519 37,000  Level Los Angeles Center
08:30PM 36.9578 -111.9531 72° East 451 519 37,000  Level Denver Center
08:31PM 36.9950 -111.8033 73° East 452 520 37,000  Level Denver Center
08:32PM 37.0344 -111.6531 72° East 455 524 37,000  Level Denver Center
08:33PM 37.0722 -111.5031 72° East 455 524 37,000  Level Denver Center
08:34PM 37.1172 -111.3231 73° East 454 522 37,000  Level Denver Center
08:35PM 37.1539 -111.1733 73° East 451 519 37,000  Level Denver Center
08:36PM 37.1919 -111.0217 72° East 456 525 37,000  Level Denver Center
08:37PM 37.2294 -110.8722 72° East 454 522 37,000  Level Denver Center
08:38PM 37.2667 -110.7194 73° East 458 527 37,000  Level Denver Center
08:39PM 37.3031 -110.5678 73° East 457 526 37,000  Level Denver Center
08:40PM 37.3475 -110.3850 73° East 457 526 37,000  Level Denver Center
08:41PM 37.3856 -110.2317 73° East 460 529 37,000  Level Denver Center
08:42PM 37.4181 -110.0917 74° East 460 529 37,000  Level Denver Center
08:43PM 37.4592 -109.9194 73° East 461 531 37,000  Level Denver Center
08:44PM 37.4942 -109.7731 73° East 457 526 37,000  Level Denver Center
08:45PM 37.5331 -109.6006 74° East 459 528 37,000  Level Denver Center
08:46PM 37.5686 -109.4508 73° East 463 533 37,000  Level Denver Center
08:47PM 37.6083 -109.2794 74° East 457 526 37,000  Level Denver Center
08:48PM 37.6431 -109.1272 74° East 468 539 37,000  Level Denver Center
08:49PM 37.6775 -108.9781 74° East 464 534 37,000  Level Denver Center
08:50PM 37.7175 -108.7997 74° East 472 543 37,000  Level Denver Center
08:51PM 37.7514 -108.6478 74° East 472 543 37,000  Level Denver Center
08:52PM 37.7906 -108.4714 74° East 467 537 37,000  Level Denver Center
08:53PM 37.8236 -108.3194 75° East 468 539 37,000  Level Denver Center
08:54PM 37.8572 -108.1686 74° East 465 535 37,000  Level Denver Center
08:55PM 37.8956 -107.9903 75° East 469 540 37,000  Level Denver Center
08:56PM 37.9292 -107.8403 74° East 464 534 37,000  Level Denver Center
08:57PM 37.9667 -107.6611 75° East 469 540 37,000  Level Denver Center
08:58PM 37.9997 -107.5089 75° East 468 539 37,000  Level Denver Center
09:00PM 38.0322 -107.3572 75° East 466 536 37,000  Level Denver Center
09:01PM 38.0697 -107.1819 75° East 463 533 37,000  Level Denver Center
09:02PM 38.0981 -107.0381 76° East 464 534 37,000  Level Denver Center
09:03PM 38.1319 -106.8806 75° East 465 535 37,000  Level Denver Center
09:04PM 38.1717 -106.6856 75° East 465 535 37,000  Level Denver Center
09:05PM 38.2022 -106.5331 76° East 467 537 37,000  Level Denver Center
09:06PM 38.2350 -106.3700 76° East 468 539 37,000  Level Denver Center
09:07PM 38.2681 -106.2069 75° East 467 537 37,000  Level Denver Center
09:08PM 38.3003 -106.0478 75° East 464 534 37,000  Level Denver Center
09:09PM 38.3353 -105.8694 76° East 464 534 37,000  Level Denver Center
09:10PM 38.3628 -105.7233 76° East 467 537 37,000  Level Denver Center
09:11PM 38.4006 -105.5344 76° East 468 539 37,000  Level Denver Center
09:12PM 38.4314 -105.3736 76° East 465 535 37,000  Level Denver Center
09:13PM 38.4631 -105.2122 76° East 466 536 37,000  Level Denver Center
09:14PM 38.4928 -105.0511 77° East 465 535 37,000  Level Denver Center
09:15PM 38.5236 -104.8908 76° East 463 533 37,000  Level Denver Center
09:16PM 38.5544 -104.7283 76° East 466 536 37,000  Level Denver Center
09:17PM 38.5836 -104.5692 77° East 461 531 37,000  Level Denver Center
09:18PM 38.6119 -104.4092 77° East 459 528 37,000  Level Denver Center
09:19PM 38.6472 -104.2214 76° East 463 533 37,000  Level Denver Center
09:20PM 38.6731 -104.0789 77° East 460 529 37,000  Level Denver Center
09:21PM 38.7056 -103.8994 77° East 462 532 37,000  Level Denver Center
09:22PM 38.7325 -103.7453 77° East 463 533 37,000  Level Denver Center
09:23PM 38.7647 -103.5633 77° East 467 537 37,000  Level Denver Center
09:24PM 38.7903 -103.4133 78° East 465 535 37,000  Level Denver Center
09:25PM 38.8186 -103.2486 78° East 470 541 37,000  Level Denver Center
09:26PM 38.8475 -103.0836 77° East 470 541 37,000  Level Denver Center
09:27PM 38.8792 -102.8917 78° East 470 541 37,000  Level Denver Center
09:28PM 38.9083 -102.7247 77° East 470 541 37,000  Level Denver Center
09:29PM 38.9336 -102.5686 78° East 467 537 37,000  Level Denver Center
09:30PM 38.9597 -102.4111 78° East 470 541 37,000  Level Denver Center
09:31PM 38.9897 -102.2297 78° East 467 537 37,000  Level Denver Center
09:32PM 39.0144 -102.0750 78° East 463 533 37,000  Level Denver Center
09:33PM 39.0433 -101.8947 78° East 462 532 37,000  Level Denver Center
09:34PM 39.0683 -101.7394 78° East 463 533 37,000  Level Denver Center
09:36PM 39.0953 -101.5633 79° East 466 536 37,000  Level Denver Center
09:37PM 39.1203 -101.4067 78° East 466 536 37,000  Level Denver Center
09:38PM 39.1489 -101.2228 79° East 471 542 37,000  Level Denver Center
09:39PM 39.1719 -101.0669 79° East 466 536 37,000  Level Denver Center
09:40PM 39.2008 -100.8828 79° East 468 539 37,000  Level Denver Center
09:41PM 39.2228 -100.7261 80° East 467 537 37,000  Level Denver Center
09:42PM 39.2497 -100.5422 79° East 468 539 37,000  Level Denver Center
09:43PM 39.2733 -100.3875 79° East 463 533 37,000  Level Denver Center
09:44PM 39.2997 -100.2053 79° East 463 533 37,000  Level Denver Center
09:45PM 39.3217 -100.0508 80° East 460 529 37,000  Level Denver Center
09:46PM 39.3442 -99.8939 79° East 464 534 37,000  Level Denver Center
09:47PM 39.3769 -99.6594 80° East 462 532 37,000  Level Denver Center
09:48PM 39.4025 -99.4772 80° East 464 534 37,000  Level Denver Center
09:49PM 39.4239 -99.3203 80° East 465 535 37,000  Level Denver Center
09:50PM 39.4494 -99.1314 80° East 466 536 37,000  Level Denver Center
09:51PM 39.4711 -98.9658 80° East 466 536 37,000  Level Denver Center
09:52PM 39.4922 -98.8003 81° East 468 539 37,000  Level Denver Center
09:53PM 39.5139 -98.6367 80° East 463 533 37,000  Level Denver Center
09:54PM 39.5353 -98.4694 81° East 469 540 37,000  Level Denver Center
09:55PM 39.5569 -98.3047 80° East 467 537 37,000  Level Denver Center
09:57PM 39.5875 -98.0631 81° East 471 542 37,000  Level Kansas City Center
09:58PM 39.6083 -97.8969 81° East 469 540 37,000  Level Kansas City Center
09:59PM 39.6267 -97.7383 81° East 463 533 37,000  Level Kansas City Center
10:00PM 39.6428 -97.6083 81° East 469 540 37,000  Level Minneapolis Center
10:01PM 39.6628 -97.4436 81° East 468 539 37,000  Level Minneapolis Center
10:02PM 39.6817 -97.2769 82° East 467 537 37,000  Level Minneapolis Center
10:03PM 39.7011 -97.1125 81° East 465 535 37,000  Level Minneapolis Center
10:03PM 39.7081 -97.0650 79° East 466 536 37,000  Level Kansas City Center
10:04PM 39.7275 -96.8978 81° East 466 536 37,000  Level Kansas City Center
10:05PM 39.7475 -96.7072 82° East 466 536 37,000  Level Kansas City Center
10:06PM 39.7661 -96.5417 82° East 465 535 37,000  Level Kansas City Center
10:07PM 39.7858 -96.3644 82° East 467 537 37,000  Level Kansas City Center
10:08PM 39.8028 -96.2097 82° East 462 532 37,000  Level Kansas City Center
10:09PM 39.8203 -96.0422 82° East 464 534 37,000  Level Kansas City Center
10:10PM 39.8403 -95.8569 82° East 467 537 37,000  Level Kansas City Center
10:11PM 39.8572 -95.6958 82° East 467 537 37,000  Level Kansas City Center
10:12PM 39.8739 -95.5339 82° East 469 540 37,000  Level Kansas City Center
10:13PM 39.8931 -95.3433 82° East 472 543 37,000  Level Kansas City Center
10:14PM 39.9089 -95.1831 83° East 467 537 37,000  Level Kansas City Center
10:15PM 39.9250 -95.0217 83° East 466 536 37,000  Level Kansas City Center
10:16PM 39.9433 -94.8328 83° East 468 539 37,000  Level Kansas City Center
10:17PM 39.9592 -94.6722 83° East 467 537 37,000  Level Kansas City Center
10:18PM 39.9761 -94.4836 83° East 468 539 37,000  Level Kansas City Center
10:19PM 39.9917 -94.3214 83° East 468 539 37,000  Level Kansas City Center
10:20PM 40.0200 -94.1644 77° East 467 537 37,000  Level Kansas City Center
10:21PM 40.0539 -93.9886 76° East 471 542 37,000  Level Kansas City Center
10:22PM 40.0853 -93.8275 76° East 465 535 37,000  Level Kansas City Center
10:23PM 40.1189 -93.6650 75° East 465 535 37,000  Level Kansas City Center
10:24PM 40.1517 -93.5022 75° East 467 537 37,000  Level Kansas City Center
10:25PM 40.1844 -93.3403 75° East 466 536 37,000  Level Kansas City Center
10:26PM 40.2178 -93.1781 75° East 465 535 37,000  Level Kansas City Center
10:27PM 40.2550 -92.9889 75° East 462 532 37,000  Level Kansas City Center
10:28PM 40.2856 -92.8331 76° East 460 529 37,000  Level Kansas City Center
10:29PM 40.3219 -92.6517 75° East 461 531 37,000  Level Kansas City Center
10:30PM 40.3447 -92.5092 78° East 464 534 37,000  Level Kansas City Center
10:32PM 40.3842 -92.3211 75° East 464 534 37,000  Level Kansas City Center
10:33PM 40.4136 -92.1608 76° East 459 528 37,000  Level Kansas City Center
10:34PM 40.4439 -92.0003 76° East 457 526 37,000  Level Kansas City Center
10:35PM 40.4731 -91.8389 77° East 458 527 37,000  Level Kansas City Center
10:36PM 40.5022 -91.6786 76° East 456 525 37,000 -720 Level Kansas City Center
10:36PM 40.5269 -91.5506 76° East 455 524 35,800 -2,280 Descending Chicago Center
10:37PM 40.5578 -91.3914 76° East 455 524 33,100 -1,380 Descending Chicago Center
10:38PM 40.6042 -91.2569 66° East 455 524 33,000 -60 Descending Chicago Center
10:39PM 40.6653 -91.0769 66° East 450 518 33,000  Level Chicago Center
10:40PM 40.7172 -90.9272 65° Northeast 449 517 33,000  Level Chicago Center
10:41PM 40.7675 -90.7756 66° East 450 518 33,000  Level Chicago Center
10:42PM 40.8297 -90.6319 60° Northeast 448 516 33,000  Level Chicago Center
10:43PM 40.8986 -90.4956 56° Northeast 445 512 33,000  Level Chicago Center
10:44PM 40.9683 -90.3567 56° Northeast 448 516 33,000  Level Chicago Center
10:45PM 41.0367 -90.2181 57° Northeast 448 516 33,000  Level Chicago Center
10:46PM 41.0939 -90.0667 63° Northeast 459 528 33,000 -840 Level Chicago Center
10:47PM 41.1433 -89.9092 67° East 459 528 31,400 -2,340 Descending Chicago Center
10:49PM 41.1925 -89.7522 67° East 458 527 28,300 -2,760 Descending Chicago Center
10:50PM 41.2411 -89.5992 67° East 449 517 25,800 -2,460 Descending Chicago Center
10:51PM 41.2864 -89.4519 68° East 433 498 23,400 -2,340 Descending Chicago Center
10:52PM 41.3300 -89.3086 68° East 420 483 21,100 -2,340 Descending Chicago Center
10:53PM 41.3753 -89.1581 68° East 401 461 18,700 -2,400 Descending Chicago Center
10:54PM 41.4153 -89.0250 68° East 390 449 16,300 -2,220 Descending Chicago Center
10:55PM 41.4547 -88.8967 68° East 378 435 14,200 -2,100 Descending Chicago Center
10:56PM 41.4922 -88.7733 68° East 363 418 12,100 -1,620 Descending Chicago Center
10:57PM 41.5311 -88.6567 66° East 347 399 11,000 -600 Descending Chicago Center
10:58PM 41.5747 -88.5458 62° Northeast 338 389 11,000  Level Chicago Center
10:59PM 41.6233 -88.4394 59° Northeast 336 387 11,000  Level Chicago Center
11:00PM 41.6811 -88.3414 52° Northeast 335 386 11,000 -300 Level Chicago Center
11:01PM 41.7453 -88.2319 52° Northeast 305 351 10,500 -1,200 Descending Chicago Center
11:02PM 41.7931 -88.1514 51° Northeast 278 320 8,600 -1,620 Descending Chicago Center
11:03PM 41.8594 -88.1178 21° North 281 323 7,300 -1,140 Descending Chicago Center
11:03PM 41.9000 -88.1167 North 267 307 7,000 -180 Descending Chicago TRACON
11:04PM 41.9667 -88.1167 360° North 230 265 7,100 -300 Climbing Chicago TRACON
11:05PM 41.9911 -88.1306 337° Northwest 234 269 6,600 -1,080 Descending Chicago Center
11:06PM 42.0361 -88.1892 316° Northwest 228 262 5,400 -1,140 Descending Chicago Center
11:07PM 42.0878 -88.2314 329° Northwest 233 268 4,400 -720 Descending Chicago Center
11:08PM 42.1303 -88.1675 48° Northeast 232 267 4,000 -420 Descending Chicago Center